createdAt,value
2018-10-17T00:00:18.455Z,11.70
2018-10-17T00:02:46.595Z,11.70
2018-10-17T00:05:14.871Z,11.70
2018-10-17T00:07:42.907Z,11.70
2018-10-17T00:10:11.660Z,11.70
2018-10-17T00:12:40.715Z,11.70
2018-10-17T00:15:09.336Z,11.60
2018-10-17T00:17:37.447Z,11.60
2018-10-17T00:20:06.880Z,11.60
2018-10-17T00:22:35.083Z,11.60
2018-10-17T00:25:03.302Z,11.60
2018-10-17T00:27:31.416Z,11.60
2018-10-17T00:29:59.598Z,11.60
2018-10-17T00:32:27.749Z,11.60
2018-10-17T00:34:55.934Z,11.50
2018-10-17T00:37:24.113Z,11.50
2018-10-17T00:39:52.238Z,11.50
2018-10-17T00:42:20.389Z,11.50
2018-10-17T00:44:48.624Z,11.40
2018-10-17T00:47:17.027Z,11.40
2018-10-17T00:49:45.183Z,11.40
2018-10-17T00:52:13.312Z,11.40
2018-10-17T00:54:41.525Z,11.30
2018-10-17T00:57:09.705Z,11.30
2018-10-17T00:59:37.843Z,11.30
2018-10-17T01:02:06.199Z,11.30
2018-10-17T01:04:34.386Z,11.30
2018-10-17T01:07:02.501Z,11.30
2018-10-17T01:09:30.795Z,11.20
2018-10-17T01:11:58.944Z,11.20
2018-10-17T01:14:27.279Z,11.20
2018-10-17T01:16:55.521Z,11.20
2018-10-17T01:19:23.684Z,11.20
2018-10-17T01:21:51.887Z,11.20
2018-10-17T01:24:20.039Z,11.20
2018-10-17T01:26:48.359Z,11.10
2018-10-17T01:29:16.547Z,11.10
2018-10-17T01:31:44.767Z,11.10
2018-10-17T01:34:12.960Z,11.10
2018-10-17T01:36:41.116Z,11.10
2018-10-17T01:39:10.071Z,11.10
2018-10-17T01:41:38.309Z,11.10
2018-10-17T01:44:06.883Z,11.10
2018-10-17T01:46:35.137Z,11.10
2018-10-17T01:49:03.297Z,11.10
2018-10-17T01:51:31.449Z,11.10
2018-10-17T01:53:59.659Z,11.10
2018-10-17T01:56:27.791Z,11.10
2018-10-17T01:58:55.911Z,11.00
2018-10-17T02:01:24.037Z,11.00
2018-10-17T02:03:52.207Z,11.00
2018-10-17T02:06:20.341Z,11.00
2018-10-17T02:08:48.499Z,11.00
2018-10-17T02:11:16.709Z,11.00
2018-10-17T02:13:44.844Z,10.90
2018-10-17T02:16:12.942Z,10.90
2018-10-17T02:18:41.130Z,10.90
2018-10-17T02:21:09.250Z,10.90
2018-10-17T02:23:37.380Z,10.80
2018-10-17T02:26:05.550Z,10.80
2018-10-17T02:28:33.708Z,10.80
2018-10-17T02:31:01.948Z,10.80
2018-10-17T02:33:30.032Z,10.70
2018-10-17T02:35:58.280Z,10.70
2018-10-17T02:38:26.630Z,10.70
2018-10-17T02:40:54.798Z,10.70
2018-10-17T02:43:23.068Z,10.70
2018-10-17T02:45:51.196Z,10.70
2018-10-17T02:48:19.322Z,10.70
2018-10-17T02:50:47.454Z,10.70
2018-10-17T02:53:15.717Z,10.80
2018-10-17T02:55:44.026Z,10.70
2018-10-17T02:58:12.162Z,10.70
2018-10-17T03:00:40.385Z,10.70
2018-10-17T03:03:13.121Z,10.60
2018-10-17T03:05:42.603Z,10.60
2018-10-17T03:08:13.907Z,10.50
2018-10-17T03:10:42.241Z,10.50
2018-10-17T03:13:10.648Z,10.50
2018-10-17T03:15:38.765Z,10.50
2018-10-17T03:18:06.886Z,10.50
2018-10-17T03:20:35.027Z,10.50
2018-10-17T03:23:03.208Z,10.40
2018-10-17T03:25:31.363Z,10.40
2018-10-17T03:27:59.573Z,10.40
2018-10-17T03:30:27.686Z,10.40
2018-10-17T03:32:55.863Z,10.40
2018-10-17T03:35:24.804Z,10.40
2018-10-17T03:37:52.989Z,10.40
2018-10-17T03:40:21.163Z,10.40
2018-10-17T03:42:49.353Z,10.40
2018-10-17T03:45:17.530Z,10.40
2018-10-17T03:47:45.651Z,10.40
2018-10-17T03:50:13.795Z,10.40
2018-10-17T03:52:41.965Z,10.40
2018-10-17T03:55:10.144Z,10.40
2018-10-17T03:57:38.343Z,10.30
2018-10-17T04:00:07.667Z,10.30
2018-10-17T04:02:35.827Z,10.30
2018-10-17T04:05:03.974Z,10.30
2018-10-17T04:07:32.118Z,10.30
2018-10-17T04:10:00.247Z,10.30
2018-10-17T04:12:28.415Z,10.30
2018-10-17T04:14:56.605Z,10.30
2018-10-17T04:17:24.764Z,10.30
2018-10-17T04:19:52.919Z,10.30
2018-10-17T04:22:21.097Z,10.20
2018-10-17T04:24:49.295Z,10.30
2018-10-17T04:27:17.466Z,10.30
2018-10-17T04:29:45.668Z,10.30
2018-10-17T04:32:13.848Z,10.30
2018-10-17T04:34:41.964Z,10.30
2018-10-17T04:37:10.091Z,10.20
2018-10-17T04:39:38.210Z,10.20
2018-10-17T04:42:06.395Z,10.20
2018-10-17T04:44:34.569Z,10.20
2018-10-17T04:47:02.763Z,10.20
2018-10-17T04:49:30.930Z,10.10
2018-10-17T04:51:59.058Z,10.10
2018-10-17T04:54:27.227Z,10.10
2018-10-17T04:56:55.364Z,10.10
2018-10-17T04:59:23.580Z,10.10
2018-10-17T05:01:51.714Z,10.10
2018-10-17T05:04:19.837Z,10.10
2018-10-17T05:06:48.197Z,10.00
2018-10-17T05:09:16.280Z,10.00
2018-10-17T05:11:44.390Z,10.00
2018-10-17T05:14:12.522Z,10.00
2018-10-17T05:16:40.699Z,10.00
2018-10-17T05:19:08.899Z,10.00
2018-10-17T05:21:37.108Z,9.90
2018-10-17T05:24:05.240Z,9.90
2018-10-17T05:26:33.366Z,9.90
2018-10-17T05:29:01.610Z,9.90
2018-10-17T05:31:29.720Z,9.90
2018-10-17T05:33:57.976Z,9.90
2018-10-17T05:36:26.124Z,10.00
2018-10-17T05:38:54.302Z,9.90
2018-10-17T05:41:22.386Z,9.90
2018-10-17T05:43:50.775Z,9.90
2018-10-17T05:46:19.100Z,9.90
2018-10-17T05:48:47.726Z,9.90
2018-10-17T05:51:16.032Z,9.90
2018-10-17T05:53:44.186Z,9.90
2018-10-17T05:56:12.332Z,10.00
2018-10-17T05:58:40.494Z,10.00
2018-10-17T06:01:08.623Z,10.00
2018-10-17T06:03:36.744Z,10.00
2018-10-17T06:06:05.223Z,10.00
2018-10-17T06:08:33.394Z,10.00
2018-10-17T06:11:01.564Z,10.10
2018-10-17T06:13:29.728Z,10.10
2018-10-17T06:15:57.850Z,10.10
2018-10-17T06:18:26.001Z,10.20
2018-10-17T06:20:54.212Z,10.20
2018-10-17T06:23:22.379Z,10.30
2018-10-17T06:25:50.513Z,10.30
2018-10-17T06:28:18.707Z,10.40
2018-10-17T06:30:46.821Z,10.40
2018-10-17T06:33:15.134Z,10.50
2018-10-17T06:38:22.264Z,10.60
2018-10-17T06:40:50.410Z,10.70
2018-10-17T06:43:18.587Z,10.80
2018-10-17T06:45:46.938Z,10.80
2018-10-17T06:48:15.179Z,10.90
2018-10-17T06:50:43.444Z,10.90
2018-10-17T06:53:11.739Z,10.90
2018-10-17T06:55:40.068Z,11.00
2018-10-17T06:58:08.352Z,11.10
2018-10-17T07:00:36.632Z,11.10
2018-10-17T07:03:04.900Z,11.20
2018-10-17T07:05:33.034Z,11.20
2018-10-17T07:08:01.172Z,11.20
2018-10-17T07:10:30.262Z,11.30
2018-10-17T07:12:58.496Z,11.30
2018-10-17T07:15:26.888Z,11.40
2018-10-17T07:17:55.038Z,11.50
2018-10-17T07:20:23.194Z,11.50
2018-10-17T07:22:51.413Z,11.60
2018-10-17T07:25:19.598Z,11.70
2018-10-17T07:30:22.646Z,11.90
2018-10-17T07:32:51.250Z,12.00
2018-10-17T07:35:19.492Z,12.10
2018-10-17T07:37:47.682Z,12.20
2018-10-17T07:40:16.169Z,12.30
2018-10-17T07:42:45.266Z,12.40
2018-10-17T07:45:13.542Z,12.50
2018-10-17T07:47:41.687Z,12.70
2018-10-17T07:50:10.078Z,12.80
2018-10-17T07:52:38.308Z,12.90
2018-10-17T07:55:09.129Z,13.00
2018-10-17T07:57:37.595Z,13.00
2018-10-17T08:00:09.225Z,13.10
2018-10-17T08:02:38.680Z,13.30
2018-10-17T08:05:06.919Z,13.40
2018-10-17T08:07:35.469Z,13.50
2018-10-17T08:10:03.652Z,13.60
2018-10-17T08:12:31.763Z,13.70
2018-10-17T08:14:59.900Z,13.80
2018-10-17T08:17:28.074Z,14.00
2018-10-17T08:19:56.224Z,14.00
2018-10-17T08:22:24.576Z,14.10
2018-10-17T08:24:52.743Z,14.20
2018-10-17T08:27:21.220Z,14.20
2018-10-17T08:29:49.367Z,14.30
2018-10-17T08:32:17.526Z,14.40
2018-10-17T08:34:45.702Z,14.50
2018-10-17T08:37:14.224Z,14.60
2018-10-17T08:39:42.022Z,14.70
2018-10-17T08:42:10.924Z,14.80
2018-10-17T08:44:39.069Z,14.90
2018-10-17T08:47:07.285Z,15.00
2018-10-17T08:49:35.470Z,15.10
2018-10-17T08:52:03.812Z,15.30
2018-10-17T08:54:32.008Z,15.30
2018-10-17T08:57:00.146Z,15.40
2018-10-17T08:59:28.298Z,15.50
2018-10-17T09:01:56.500Z,15.50
2018-10-17T09:04:24.822Z,15.60
2018-10-17T09:06:53.024Z,15.60
2018-10-17T09:09:21.278Z,15.70
2018-10-17T09:11:49.418Z,15.80
2018-10-17T09:14:17.728Z,15.90
2018-10-17T09:16:45.915Z,15.90
2018-10-17T09:19:14.107Z,16.00
2018-10-17T09:21:42.571Z,16.00
2018-10-17T09:24:10.688Z,16.00
2018-10-17T09:26:38.830Z,16.10
2018-10-17T09:29:07.058Z,16.20
2018-10-17T09:31:35.167Z,16.30
2018-10-17T09:34:03.350Z,16.30
2018-10-17T09:36:31.620Z,16.40
2018-10-17T09:38:59.762Z,16.50
2018-10-17T09:41:27.916Z,16.60
2018-10-17T09:43:56.082Z,16.60
2018-10-17T09:46:24.298Z,16.70
2018-10-17T09:48:52.503Z,16.70
2018-10-17T09:51:20.615Z,16.70
2018-10-17T09:53:48.840Z,16.80
2018-10-17T09:56:16.982Z,16.80
2018-10-17T09:58:45.110Z,16.90
2018-10-17T10:01:15.892Z,17.00
2018-10-17T10:03:44.363Z,17.00
2018-10-17T10:06:12.639Z,17.10
2018-10-17T10:08:40.665Z,17.20
2018-10-17T10:11:09.069Z,17.20
2018-10-17T10:13:37.130Z,17.20
2018-10-17T10:16:05.353Z,17.30
2018-10-17T10:18:33.445Z,17.30
2018-10-17T10:21:01.751Z,17.40
2018-10-17T10:23:30.005Z,17.50
2018-10-17T10:25:58.197Z,17.50
2018-10-17T10:28:26.526Z,17.50
2018-10-17T10:30:54.494Z,17.60
2018-10-17T10:33:22.708Z,17.70
2018-10-17T10:35:50.982Z,17.70
2018-10-17T10:38:19.041Z,17.70
2018-10-17T10:40:47.407Z,17.70
2018-10-17T10:43:15.402Z,17.70
2018-10-17T10:45:43.544Z,17.70
2018-10-17T10:48:11.775Z,17.70
2018-10-17T10:50:39.836Z,17.80
2018-10-17T10:53:08.074Z,17.80
2018-10-17T10:55:36.167Z,17.90
2018-10-17T10:58:04.411Z,18.00
2018-10-17T11:00:32.540Z,18.00
2018-10-17T11:03:00.835Z,18.00
2018-10-17T11:05:29.153Z,18.00
2018-10-17T11:07:57.283Z,18.00
2018-10-17T11:10:25.431Z,18.10
2018-10-17T11:12:53.576Z,18.10
2018-10-17T11:15:22.503Z,18.10
2018-10-17T11:17:50.673Z,18.20
2018-10-17T11:20:18.910Z,18.20
2018-10-17T11:22:47.065Z,18.20
2018-10-17T11:25:15.233Z,18.10
2018-10-17T11:27:43.385Z,18.20
2018-10-17T11:30:12.047Z,18.20
2018-10-17T11:32:40.520Z,18.20
2018-10-17T11:35:09.934Z,18.20
2018-10-17T11:37:38.526Z,18.30
2018-10-17T11:40:07.169Z,18.30
2018-10-17T11:42:35.271Z,18.30
2018-10-17T11:45:03.622Z,18.40
2018-10-17T11:47:31.740Z,18.40
2018-10-17T11:49:59.939Z,18.40
2018-10-17T11:52:28.072Z,18.40
2018-10-17T11:54:56.229Z,18.50
2018-10-17T11:57:24.466Z,18.50
2018-10-17T11:59:52.610Z,18.50
2018-10-17T12:02:20.833Z,18.50
2018-10-17T12:04:49.276Z,18.50
2018-10-17T12:07:17.248Z,18.50
2018-10-17T12:09:45.442Z,18.60
2018-10-17T12:12:13.658Z,18.60
2018-10-17T12:14:41.884Z,18.60
2018-10-17T12:17:10.165Z,18.60
2018-10-17T12:19:38.354Z,18.60
2018-10-17T12:22:06.485Z,18.70
2018-10-17T12:24:34.643Z,18.70
2018-10-17T12:27:02.844Z,18.60
2018-10-17T12:29:31.082Z,18.60
2018-10-17T12:31:59.297Z,18.70
2018-10-17T12:34:27.443Z,18.70
2018-10-17T12:39:31.783Z,18.70
2018-10-17T12:41:59.855Z,18.70
2018-10-17T12:44:28.327Z,18.80
2018-10-17T12:46:56.949Z,18.90
2018-10-17T12:49:25.129Z,19.00
2018-10-17T12:51:53.395Z,19.00
2018-10-17T12:54:21.871Z,19.10
2018-10-17T12:56:50.361Z,19.10
2018-10-17T12:59:18.655Z,19.10
2018-10-17T13:01:46.844Z,19.00
2018-10-17T13:04:15.172Z,19.00
2018-10-17T13:06:43.794Z,18.90
2018-10-17T13:09:13.598Z,19.00
2018-10-17T13:11:42.024Z,19.00
2018-10-17T13:14:10.640Z,19.00
2018-10-17T13:16:38.793Z,18.90
2018-10-17T13:19:07.002Z,18.90
2018-10-17T13:21:37.134Z,18.90
2018-10-17T13:24:06.327Z,19.00
2018-10-17T13:26:34.653Z,19.00
2018-10-17T13:29:02.996Z,19.20
2018-10-17T13:31:31.238Z,19.30
2018-10-17T13:33:59.435Z,19.30
2018-10-17T13:36:27.706Z,19.20
2018-10-17T13:38:55.861Z,19.10
2018-10-17T13:41:24.047Z,19.10
2018-10-17T13:43:52.181Z,19.00
2018-10-17T13:46:20.671Z,18.90
2018-10-17T13:48:48.885Z,18.90
2018-10-17T13:51:17.519Z,18.90
2018-10-17T13:53:45.783Z,18.90
2018-10-17T13:56:14.176Z,18.90
2018-10-17T13:58:42.505Z,19.00
2018-10-17T14:01:10.905Z,19.10
2018-10-17T14:03:39.084Z,19.10
2018-10-17T14:06:07.261Z,19.00
2018-10-17T14:08:35.406Z,18.90
2018-10-17T14:11:03.651Z,18.80
2018-10-17T14:13:32.777Z,18.80
2018-10-17T14:16:01.070Z,18.70
2018-10-17T14:18:29.428Z,18.70
2018-10-17T14:20:57.590Z,18.60
2018-10-17T14:23:25.897Z,18.60
2018-10-17T14:25:54.035Z,18.60
2018-10-17T14:28:22.134Z,18.50
2018-10-17T14:30:50.295Z,18.50
2018-10-17T14:33:18.446Z,18.50
2018-10-17T14:35:46.565Z,18.50
2018-10-17T14:38:15.131Z,18.40
2018-10-17T14:40:43.407Z,18.40
2018-10-17T14:43:11.680Z,18.40
2018-10-17T14:45:39.948Z,18.40
2018-10-17T14:48:08.319Z,18.30
2018-10-17T14:50:36.541Z,18.30
2018-10-17T14:53:05.406Z,18.20
2018-10-17T14:55:33.627Z,18.20
2018-10-17T14:58:01.922Z,18.20
2018-10-17T15:00:30.191Z,18.10
2018-10-17T15:02:58.410Z,18.10
2018-10-17T15:05:26.664Z,18.00
2018-10-17T15:07:54.821Z,18.00
2018-10-17T15:10:23.125Z,17.90
2018-10-17T15:12:51.484Z,17.80
2018-10-17T15:15:19.846Z,17.80
2018-10-17T15:17:47.895Z,17.70
2018-10-17T15:20:16.239Z,17.60
2018-10-17T15:22:44.473Z,17.50
2018-10-17T15:25:12.778Z,17.50
2018-10-17T15:27:40.965Z,17.40
2018-10-17T15:30:09.154Z,17.30
2018-10-17T15:32:37.718Z,17.20
2018-10-17T15:35:06.616Z,17.20
2018-10-17T15:37:34.765Z,17.10
2018-10-17T15:40:02.884Z,17.00
2018-10-17T15:42:31.224Z,17.00
2018-10-17T15:44:59.330Z,16.90
2018-10-17T15:47:27.518Z,16.80
2018-10-17T15:49:55.675Z,16.70
2018-10-17T15:52:23.870Z,16.70
2018-10-17T15:54:52.121Z,16.60
2018-10-17T15:57:20.319Z,16.50
2018-10-17T15:59:48.574Z,16.40
2018-10-17T16:02:25.259Z,16.40
2018-10-17T16:04:53.405Z,16.30
2018-10-17T16:07:21.573Z,16.30
2018-10-17T16:09:49.735Z,16.20
2018-10-17T16:12:18.081Z,16.20
2018-10-17T16:14:46.311Z,16.10
2018-10-17T16:17:14.733Z,16.10
2018-10-17T16:19:42.885Z,16.00
2018-10-17T16:22:11.263Z,15.90
2018-10-17T16:24:39.409Z,15.80
2018-10-17T16:27:07.627Z,15.80
2018-10-17T16:29:35.835Z,15.70
2018-10-17T16:32:04.078Z,15.60
2018-10-17T16:34:32.485Z,15.50
2018-10-17T16:37:00.719Z,15.40
2018-10-17T16:39:28.891Z,15.40
2018-10-17T16:41:57.098Z,15.30
2018-10-17T16:44:25.264Z,15.30
2018-10-17T16:46:53.451Z,15.30
2018-10-17T16:49:21.758Z,15.20
2018-10-17T16:51:49.962Z,15.20
2018-10-17T16:54:18.152Z,15.10
2018-10-17T16:56:46.324Z,15.10
2018-10-17T16:59:14.525Z,15.00
2018-10-17T17:01:43.557Z,15.00
2018-10-17T17:04:11.799Z,14.90
2018-10-17T17:06:40.025Z,14.90
2018-10-17T17:09:09.522Z,14.90
2018-10-17T17:11:37.681Z,14.90
2018-10-17T17:14:05.839Z,14.80
2018-10-17T17:16:34.226Z,14.80
2018-10-17T17:19:02.399Z,14.70
2018-10-17T17:21:30.597Z,14.70
2018-10-17T17:23:58.837Z,14.60
2018-10-17T17:26:27.083Z,14.60
2018-10-17T17:28:55.261Z,14.60
2018-10-17T17:31:23.478Z,14.60
2018-10-17T17:33:51.733Z,14.50
2018-10-17T17:36:19.914Z,14.50
2018-10-17T17:38:48.275Z,14.50
2018-10-17T17:41:16.613Z,14.40
2018-10-17T17:43:45.027Z,14.40
2018-10-17T17:46:13.590Z,14.40
2018-10-17T17:48:42.338Z,14.40
2018-10-17T17:51:10.625Z,14.40
2018-10-17T17:53:39.141Z,14.30
2018-10-17T17:56:07.476Z,14.30
2018-10-17T17:58:36.040Z,14.30
2018-10-17T18:01:04.115Z,14.20
2018-10-17T18:03:32.298Z,14.20
2018-10-17T18:06:00.590Z,14.20
2018-10-17T18:08:29.346Z,14.20
2018-10-17T18:11:02.067Z,14.10
2018-10-17T18:13:30.986Z,14.10
2018-10-17T18:15:59.288Z,14.10
2018-10-17T18:18:27.519Z,14.10
2018-10-17T18:20:55.724Z,14.00
2018-10-17T18:23:23.995Z,14.00
2018-10-17T18:25:52.201Z,14.00
2018-10-17T18:28:20.402Z,14.00
2018-10-17T18:30:48.861Z,13.90
2018-10-17T18:33:17.221Z,13.90
2018-10-17T18:35:45.412Z,13.90
2018-10-17T18:38:13.824Z,13.90
2018-10-17T18:40:42.708Z,13.90
2018-10-17T18:43:11.349Z,13.80
2018-10-17T18:45:39.555Z,13.80
2018-10-17T18:48:07.703Z,13.80
2018-10-17T18:50:36.019Z,13.70
2018-10-17T18:53:04.535Z,13.70
2018-10-17T18:55:32.852Z,13.70
2018-10-17T18:58:01.051Z,13.60
2018-10-17T19:00:29.599Z,13.60
2018-10-17T19:02:57.859Z,13.60
2018-10-17T19:05:26.450Z,13.60
2018-10-17T19:07:56.143Z,13.50
2018-10-17T19:10:25.058Z,13.50
2018-10-17T19:12:53.318Z,13.50
2018-10-17T19:15:21.578Z,13.50
2018-10-17T19:17:49.828Z,13.40
2018-10-17T19:20:18.868Z,13.40
2018-10-17T19:22:47.180Z,13.40
2018-10-17T19:25:15.508Z,13.40
2018-10-17T19:27:43.982Z,13.30
2018-10-17T19:30:13.863Z,13.30
2018-10-17T19:32:42.425Z,13.30
2018-10-17T19:35:10.762Z,13.30
2018-10-17T19:37:38.977Z,13.20
2018-10-17T19:40:08.748Z,13.20
2018-10-17T19:42:37.196Z,13.30
2018-10-17T19:45:06.625Z,13.20
2018-10-17T19:47:35.427Z,13.20
2018-10-17T19:50:03.704Z,13.20
2018-10-17T19:52:32.574Z,13.20
2018-10-17T19:55:00.996Z,13.20
2018-10-17T19:57:29.442Z,13.20
2018-10-17T20:00:01.976Z,13.20
2018-10-17T20:02:30.349Z,13.10
2018-10-17T20:04:58.756Z,13.10
2018-10-17T20:07:26.978Z,13.10
2018-10-17T20:09:56.795Z,13.10
2018-10-17T20:12:25.246Z,13.10
2018-10-17T20:14:54.246Z,13.10
2018-10-17T20:17:22.439Z,13.00
2018-10-17T20:19:50.645Z,13.00
2018-10-17T20:22:18.800Z,13.00
2018-10-17T20:24:46.991Z,12.90
2018-10-17T20:27:15.685Z,12.90
2018-10-17T20:29:43.879Z,12.90
2018-10-17T20:32:12.089Z,12.80
2018-10-17T20:34:40.309Z,12.80
2018-10-17T20:37:08.646Z,12.80
2018-10-17T20:39:36.890Z,12.80
2018-10-17T20:42:05.643Z,12.70
2018-10-17T20:44:33.884Z,12.70
2018-10-17T20:47:02.047Z,12.70
2018-10-17T20:49:30.196Z,12.70
2018-10-17T20:51:58.395Z,12.70
2018-10-17T20:54:26.605Z,12.60
2018-10-17T20:56:54.751Z,12.60
2018-10-17T20:59:23.036Z,12.60
2018-10-17T21:01:52.583Z,12.60
2018-10-17T21:04:20.710Z,12.60
2018-10-17T21:06:48.981Z,12.60
2018-10-17T21:09:18.270Z,12.60
2018-10-17T21:11:46.569Z,12.60
2018-10-17T21:14:18.849Z,12.60
2018-10-17T21:16:47.104Z,12.50
2018-10-17T21:19:15.964Z,12.50
2018-10-17T21:21:44.182Z,12.50
2018-10-17T21:24:12.988Z,12.50
2018-10-17T21:26:41.273Z,12.40
2018-10-17T21:29:09.414Z,12.40
2018-10-17T21:31:38.242Z,12.40
2018-10-17T21:34:06.440Z,12.40
2018-10-17T21:36:34.570Z,12.40
2018-10-17T21:39:02.768Z,12.40
2018-10-17T21:41:30.916Z,12.40
2018-10-17T21:43:59.120Z,12.40
2018-10-17T21:46:27.240Z,12.30
2018-10-17T21:48:55.448Z,12.40
2018-10-17T21:51:23.570Z,12.30
2018-10-17T21:56:26.286Z,12.30
2018-10-17T21:58:54.571Z,12.30
2018-10-17T22:01:22.741Z,12.30
2018-10-17T22:03:50.936Z,12.20
2018-10-17T22:06:19.071Z,12.20
2018-10-17T22:08:47.359Z,12.20
2018-10-17T22:11:15.636Z,12.10
2018-10-17T22:13:43.783Z,12.10
2018-10-17T22:16:11.943Z,12.10
2018-10-17T22:18:40.628Z,12.00
2018-10-17T22:21:09.189Z,12.00
2018-10-17T22:23:37.327Z,12.00
2018-10-17T22:26:05.610Z,12.00
2018-10-17T22:28:33.664Z,12.00
2018-10-17T22:31:01.818Z,12.00
2018-10-17T22:33:30.031Z,11.90
2018-10-17T22:35:58.165Z,11.90
2018-10-17T22:38:26.359Z,11.90
2018-10-17T22:40:54.506Z,12.00
2018-10-17T22:43:22.627Z,11.90
2018-10-17T22:45:50.745Z,11.90
2018-10-17T22:48:18.854Z,11.80
2018-10-17T22:50:47.071Z,11.80
2018-10-17T22:53:15.266Z,11.80
2018-10-17T22:55:43.496Z,11.80
2018-10-17T22:58:11.716Z,11.80
2018-10-17T23:00:39.929Z,11.70
2018-10-17T23:03:08.449Z,11.80
2018-10-17T23:05:36.765Z,11.80
2018-10-17T23:08:05.032Z,11.70
2018-10-17T23:10:33.167Z,11.70
2018-10-17T23:13:01.744Z,11.70
2018-10-17T23:15:29.886Z,11.70
2018-10-17T23:17:58.082Z,11.60
2018-10-17T23:20:26.482Z,11.60
2018-10-17T23:22:54.677Z,11.60
2018-10-17T23:25:22.785Z,11.60
2018-10-17T23:27:50.958Z,11.50
2018-10-17T23:30:19.949Z,11.50
2018-10-17T23:32:48.105Z,11.50
2018-10-17T23:35:16.230Z,11.50
2018-10-17T23:37:44.359Z,11.50
2018-10-17T23:40:12.508Z,11.50
2018-10-17T23:42:40.698Z,11.40
2018-10-17T23:45:08.789Z,11.40
2018-10-17T23:47:36.900Z,11.40
2018-10-17T23:50:05.285Z,11.40
2018-10-17T23:52:33.372Z,11.40
2018-10-17T23:55:01.501Z,11.40
2018-10-17T23:57:29.641Z,11.40
2018-10-17T23:59:57.911Z,11.40
